Time;durP1;ratioP1;P1;durP2;ratioP2;P2;SDS_P1;SDS_P2;PMS_P1;PMS_P2;Temp;Humidity;BMP_temperature;BMP_pressure;BME280_temperature;BME280_humidity;BME280_pressure;Samples;Min_cycle;Max_cycle;Signal;HPM_P1;HPM_P2
2021/06/25 00:00:18;;;;;;;5.65;3.55;;;14.50;99.90;;;;;;4932819;29;20041;-88
2021/06/25 00:06:11;;;;;;;;;;;;;;;;;;;;;
2021/06/25 00:08:46;;;;;;;4.57;3.42;;;14.20;99.90;;;;;;4874903;29;20037;-86
2021/06/25 00:11:39;;;;;;;4.20;3.80;;;14.20;99.90;;;;;;4933464;29;20035;-87
2021/06/25 00:14:20;;;;;;;4.30;3.83;;;14.10;99.90;;;;;;4937904;29;20043;-88
2021/06/25 00:17:41;;;;;;;5.90;3.72;;;14.00;99.90;;;;;;4943704;29;20024;-87
2021/06/25 00:20:27;;;;;;;;;;;;;;;;;;;;;
2021/06/25 00:23:08;;;;;;;4.53;3.97;;;14.00;99.90;;;;;;4934440;29;20031;-86
2021/06/25 00:26:07;;;;;;;6.18;3.97;;;13.90;99.90;;;;;;4950758;29;20027;-88
2021/06/25 00:28:58;;;;;;;;;;;;;;;;;;;;;
2021/06/25 00:32:11;;;;;;;6.22;3.88;;;13.80;99.90;;;;;;4939014;29;20142;-87
2021/06/25 00:34:41;;;;;;;4.93;3.83;;;13.70;99.90;;;;;;4932091;29;20040;-89
2021/06/25 00:37:11;;;;;;;6.13;4.35;;;13.70;99.90;;;;;;4946090;29;20035;-88
2021/06/25 00:39:53;;;;;;;;;;;;;;;;;;;;;
2021/06/25 00:42:32;;;;;;;5.03;3.97;;;13.60;99.90;;;;;;4933552;29;20031;-86
2021/06/25 00:45:15;;;;;;;4.85;4.18;;;13.50;99.90;;;;;;4932422;29;20035;-88
2021/06/25 00:47:54;;;;;;;5.40;4.77;;;13.50;99.90;;;;;;4931685;29;20070;-89
2021/06/25 00:50:33;;;;;;;4.40;3.97;;;13.40;99.90;;;;;;4906564;29;20028;-88
2021/06/25 00:53:37;;;;;;;5.88;4.38;;;13.40;99.90;;;;;;4919253;29;20036;-88
2021/06/25 00:56:09;;;;;;;5.35;4.10;;;13.30;99.90;;;;;;4919082;29;20122;-88
2021/06/25 00:58:39;;;;;;;6.10;5.10;;;13.30;99.90;;;;;;4918312;29;20115;-88
2021/06/25 01:01:08;;;;;;;6.47;4.85;;;13.30;99.90;;;;;;4902204;29;20028;-88
2021/06/25 01:03:41;;;;;;;5.80;4.50;;;13.20;99.90;;;;;;4901836;29;20473;-89
2021/06/25 01:06:14;;;;;;;8.10;5.13;;;13.20;99.90;;;;;;4901365;29;20039;-89
2021/06/25 01:09:05;;;;;;;6.20;5.10;;;13.20;99.90;;;;;;4917773;29;20032;-88
2021/06/25 01:11:35;;;;;;;5.88;5.28;;;13.10;99.90;;;;;;4917629;29;20016;-88
2021/06/25 01:17:35;;;;;;;7.22;4.88;;;13.00;99.90;;;;;;4917297;29;20039;-89
2021/06/25 01:20:28;;;;;;;7.53;5.68;;;13.00;99.90;;;;;;4901896;29;20039;-87
2021/06/25 01:22:59;;;;;;;6.68;5.75;;;12.90;99.90;;;;;;4887112;29;20047;-88
2021/06/25 01:25:33;;;;;;;7.85;6.43;;;12.90;99.90;;;;;;4917343;29;20044;-89
2021/06/25 01:28:11;;;;;;;8.07;6.85;;;12.80;99.90;;;;;;4914596;29;20040;-88
2021/06/25 01:30:47;;;;;;;6.65;5.70;;;12.80;99.90;;;;;;4916749;29;20056;-88
2021/06/25 01:33:39;;;;;;;7.32;5.90;;;12.80;99.90;;;;;;4901905;29;20123;-88
2021/06/25 01:36:06;;;;;;;7.97;7.03;;;12.80;99.90;;;;;;4900867;29;20115;-88
2021/06/25 01:38:37;;;;;;;7.70;6.15;;;12.70;99.90;;;;;;4918394;29;20047;-88
2021/06/25 01:41:10;;;;;;;7.68;6.88;;;12.70;99.90;;;;;;4901548;29;20487;-88
2021/06/25 01:43:55;;;;;;;10.73;7.50;;;12.70;99.90;;;;;;4901720;29;20039;-88
2021/06/25 01:46:30;;;;;;;7.95;7.15;;;12.60;99.90;;;;;;4901114;29;20796;-88
2021/06/25 01:48:56;;;;;;;8.15;7.35;;;12.50;99.90;;;;;;4917860;29;20024;-88
2021/06/25 01:51:32;;;;;;;9.73;7.30;;;12.50;99.90;;;;;;4901586;29;20035;-87
2021/06/25 01:54:00;;;;;;;7.70;6.90;;;12.40;99.90;;;;;;4903302;29;20112;-87
2021/06/25 01:56:29;;;;;;;9.10;7.40;;;12.30;99.90;;;;;;4918777;29;20064;-87
2021/06/25 01:58:54;;;;;;;10.38;9.07;;;12.30;99.90;;;;;;4917189;29;20028;-88
2021/06/25 02:01:20;;;;;;;8.38;7.53;;;12.30;99.90;;;;;;4916740;29;20055;-88
2021/06/25 02:03:49;;;;;;;10.60;7.50;;;12.20;99.90;;;;;;4900975;29;20039;-88
2021/06/25 02:06:18;;;;;;;8.45;7.55;;;12.20;99.90;;;;;;4886035;29;20064;-89
2021/06/25 02:08:46;;;;;;;8.80;7.57;;;12.20;99.90;;;;;;4901301;29;20032;-89
2021/06/25 02:11:17;;;;;;;8.00;7.13;;;12.10;99.90;;;;;;4918460;29;20480;-88
2021/06/25 02:13:44;;;;;;;9.02;7.90;;;12.20;99.90;;;;;;4918202;29;20043;-89
2021/06/25 02:16:10;;;;;;;8.90;7.70;;;12.10;99.90;;;;;;4916840;29;20032;-88
2021/06/25 02:18:36;;;;;;;9.20;8.18;;;12.10;99.90;;;;;;4901324;29;20366;-88
2021/06/25 02:21:04;;;;;;;9.48;7.68;;;12.10;99.90;;;;;;4916990;29;20092;-88
2021/06/25 02:23:32;;;;;;;9.48;8.55;;;12.10;99.90;;;;;;4916041;29;20072;-88
2021/06/25 02:25:58;;;;;;;9.80;8.23;;;12.00;99.90;;;;;;4901145;29;20548;-88
2021/06/25 02:28:27;;;;;;;9.52;8.50;;;12.00;99.90;;;;;;4900935;29;20059;-89
2021/06/25 02:30:57;;;;;;;9.43;8.43;;;11.90;99.90;;;;;;4901131;29;20028;-88
2021/06/25 02:33:33;;;;;;;10.73;9.43;;;11.90;99.90;;;;;;4924747;29;20535;-88
2021/06/25 02:36:00;;;;;;;10.48;8.52;;;11.80;99.90;;;;;;4930454;29;20123;-89
2021/06/25 02:38:29;;;;;;;9.90;8.90;;;11.70;99.90;;;;;;4917065;29;20028;-88
2021/06/25 02:41:04;;;;;;;11.02;9.20;;;11.70;99.90;;;;;;4918068;29;20469;-88
2021/06/25 02:43:32;;;;;;;11.70;9.57;;;11.70;99.90;;;;;;4916654;29;20031;-87
2021/06/25 02:46:00;;;;;;;10.13;8.70;;;11.60;99.90;;;;;;4916631;29;20032;-88
2021/06/25 02:48:29;;;;;;;11.00;8.13;;;11.60;99.90;;;;;;4900964;29;20039;-87
2021/06/25 02:51:03;;;;;;;8.98;8.07;;;11.60;99.90;;;;;;4900646;29;20501;-88
2021/06/25 02:53:32;;;;;;;10.32;8.98;;;11.60;99.90;;;;;;4916698;29;20107;-88
2021/06/25 02:55:57;;;;;;;11.27;8.82;;;11.50;99.90;;;;;;4916577;29;20056;-89
2021/06/25 02:58:26;;;;;;;10.00;8.10;;;11.50;99.90;;;;;;4927001;29;20052;-87
2021/06/25 03:00:56;;;;;;;10.20;8.15;;;11.50;99.90;;;;;;4930021;29;20060;-87
2021/06/25 03:03:22;;;;;;;9.57;8.52;;;11.40;99.90;;;;;;4918353;29;20036;-88
2021/06/25 03:05:52;;;;;;;10.07;9.00;;;11.50;99.90;;;;;;4918026;29;20080;-88
2021/06/25 03:08:21;;;;;;;9.73;8.73;;;11.40;99.90;;;;;;4900885;29;20024;-88
2021/06/25 03:10:53;;;;;;;10.10;8.75;;;11.40;99.90;;;;;;4901334;29;20035;-88
2021/06/25 03:13:32;;;;;;;10.52;8.70;;;11.40;99.90;;;;;;4900581;29;20156;-87
2021/06/25 03:15:58;;;;;;;9.60;8.02;;;11.30;99.90;;;;;;4905851;29;20500;-88
2021/06/25 03:18:45;;;;;;;9.07;7.93;;;11.30;99.90;;;;;;4921329;29;20032;-88
2021/06/25 03:21:18;;;;;;;10.20;8.95;;;11.30;99.90;;;;;;4920121;29;20171;-88
2021/06/25 03:23:49;;;;;;;10.05;8.70;;;11.30;99.90;;;;;;4904311;29;20031;-88
2021/06/25 03:26:17;;;;;;;9.70;8.55;;;11.30;99.90;;;;;;4904568;29;20481;-88
2021/06/25 03:28:45;;;;;;;10.13;8.98;;;11.30;99.90;;;;;;4921642;29;20039;-89
2021/06/25 03:31:22;;;;;;;10.85;9.50;;;11.30;99.90;;;;;;4904273;29;20079;-88
2021/06/25 03:33:48;;;;;;;11.32;9.65;;;11.30;99.90;;;;;;4919910;29;20048;-88
2021/06/25 03:36:16;;;;;;;11.45;9.50;;;11.40;99.90;;;;;;4903562;29;20512;-88
2021/06/25 03:38:47;;;;;;;11.13;9.00;;;11.30;99.90;;;;;;4921009;29;20024;-88
2021/06/25 03:41:19;;;;;;;13.35;10.18;;;11.40;99.90;;;;;;4903482;29;20038;-88
2021/06/25 03:43:45;;;;;;;11.50;9.68;;;11.40;99.90;;;;;;4919463;29;20028;-88
2021/06/25 03:46:14;;;;;;;11.35;9.65;;;11.50;99.90;;;;;;4920592;29;20540;-88
2021/06/25 03:48:46;;;;;;;12.93;9.88;;;11.50;99.90;;;;;;4920519;29;20028;-88
2021/06/25 03:51:22;;;;;;;12.55;10.13;;;11.60;99.90;;;;;;4919698;29;20046;-88
2021/06/25 03:53:51;;;;;;;11.82;10.10;;;11.70;99.90;;;;;;4919273;29;20119;-88
2021/06/25 03:56:26;;;;;;;12.55;10.68;;;11.80;99.90;;;;;;4920276;29;20110;-88
2021/06/25 03:58:55;;;;;;;11.65;9.77;;;11.80;99.90;;;;;;4920490;29;20075;-88
2021/06/25 04:01:41;;;;;;;12.88;10.55;;;11.90;99.90;;;;;;4920133;29;20469;-87
2021/06/25 04:04:13;;;;;;;14.05;12.48;;;12.00;99.90;;;;;;4920368;29;20028;-87
2021/06/25 04:06:44;;;;;;;14.63;12.65;;;12.00;99.90;;;;;;4920411;29;20042;-88
2021/06/25 04:09:10;;;;;;;14.07;11.32;;;12.10;99.90;;;;;;4920227;29;20028;-88
2021/06/25 04:11:47;;;;;;;16.23;11.43;;;12.20;99.90;;;;;;4903138;29;20028;-88
2021/06/25 04:14:17;;;;;;;14.02;11.70;;;12.30;99.90;;;;;;4913987;29;20036;-87
2021/06/25 04:16:43;;;;;;;16.90;12.98;;;12.40;99.90;;;;;;4920548;29;20489;-88
2021/06/25 04:19:11;;;;;;;17.33;14.15;;;12.40;99.90;;;;;;4918567;29;20032;-89
2021/06/25 04:21:37;;;;;;;17.83;15.18;;;12.50;99.90;;;;;;4918506;29;20024;-87
2021/06/25 04:24:03;;;;;;;18.48;14.70;;;12.60;99.90;;;;;;4919069;29;20342;-88
2021/06/25 04:26:36;;;;;;;19.27;16.23;;;12.70;99.90;;;;;;4917205;29;20036;-88
2021/06/25 04:29:15;;;;;;;17.38;14.30;;;12.70;99.90;;;;;;4920277;29;20480;-87
2021/06/25 04:31:44;;;;;;;15.27;12.52;;;12.90;99.90;;;;;;4919482;29;20028;-88
2021/06/25 04:34:31;;;;;;;15.07;12.73;;;13.00;99.90;;;;;;4919934;29;20032;-87
2021/06/25 04:37:09;;;;;;;;;;;;;;;;;;;;;
2021/06/25 04:39:39;;;;;;;14.75;12.70;;;13.20;99.90;;;;;;4921012;29;20039;-87
2021/06/25 04:42:12;;;;;;;16.42;13.40;;;13.30;99.90;;;;;;4933373;29;20048;-87
2021/06/25 04:45:20;;;;;;;;;;;;;;;;;;;;;
2021/06/25 04:47:43;;;;;;;14.98;11.25;;;13.40;99.90;;;;;;4939740;29;20036;-87
2021/06/25 04:50:11;;;;;;;14.02;11.07;;;13.40;99.90;;;;;;4921715;29;20103;-89
2021/06/25 04:55:45;;;;;;;15.23;13.32;;;13.60;99.90;;;;;;4912705;29;20040;-87
2021/06/25 04:58:22;;;;;;;17.05;14.07;;;13.60;99.90;;;;;;4920224;29;20024;-87
2021/06/25 05:00:49;;;;;;;18.05;14.90;;;13.60;99.90;;;;;;4918740;29;20525;-87
2021/06/25 05:03:28;;;;;;;18.83;16.27;;;13.70;99.90;;;;;;4919427;29;20040;-87
2021/06/25 05:06:00;;;;;;;17.00;14.70;;;13.60;99.90;;;;;;4902737;29;20039;-88
2021/06/25 05:11:29;;;;;;;15.25;13.20;;;13.70;99.90;;;;;;4919131;29;20040;-88
2021/06/25 05:13:57;;;;;;;18.70;14.95;;;13.70;99.90;;;;;;4902651;29;20064;-88
2021/06/25 05:16:39;;;;;;;;;;;;;;;;;;;;;
2021/06/25 05:22:04;;;;;;;17.42;13.73;;;13.70;99.90;;;;;;4915639;29;20291;-87
2021/06/25 05:25:15;;;;;;;16.85;14.20;;;13.80;99.90;;;;;;4901525;29;20028;-88
2021/06/25 05:27:48;;;;;;;15.88;12.40;;;13.80;99.90;;;;;;4908359;29;20092;-88
2021/06/25 05:30:44;;;;;;;18.42;14.27;;;13.90;99.90;;;;;;4917940;29;20056;-88
2021/06/25 05:33:39;;;;;;;18.58;14.55;;;14.00;99.90;;;;;;4902069;29;20048;-87
2021/06/25 05:36:29;;;;;;;19.10;13.95;;;14.10;99.90;;;;;;4921202;29;20028;-88
2021/06/25 05:46:07;;;;;;;14.23;10.60;;;14.40;99.90;;;;;;4838720;29;20046;-88
2021/06/25 05:52:15;;;;;;;17.27;13.40;;;14.60;99.90;;;;;;4839292;29;20045;-87
2021/06/25 05:57:58;;;;;;;;;;;;;;;;;;;;;
2021/06/25 06:07:50;;;;;;;;;;;;;;;;;;;;;
2021/06/25 06:17:26;;;;;;;;;;;;;;;;;;;;;
2021/06/25 06:38:27;;;;;;;;;;;;;;;;;;;;;
2021/06/25 06:51:25;;;;;;;12.50;9.70;;;16.10;99.90;;;;;;4818333;29;20041;-88
2021/06/25 06:54:27;;;;;;;12.05;9.98;;;16.20;99.90;;;;;;4809780;29;20455;-89
2021/06/25 06:57:18;;;;;;;;;;;;;;;;;;;;;
2021/06/25 07:00:26;;;;;;;;;;;;;;;;;;;;;
2021/06/25 07:28:40;;;;;;;12.45;9.50;;;17.70;99.90;;;;;;4805530;29;20529;-88
2021/06/25 07:42:22;;;;;;;;;;;;;;;;;;;;;
2021/06/25 08:37:12;;;;;;;;;;;;;;;;;;;;;
2021/06/25 08:58:09;;;;;;;;;;;;;;;;;;;;;
2021/06/25 09:01:25;;;;;;;;;;;;;;;;;;;;;
2021/06/25 12:00:07;;;;;;;;;;;;;;;;;;;;;
2021/06/25 12:03:42;;;;;;;;;;;;;;;;;;;;;
2021/06/25 12:37:57;;;;;;;10.13;7.88;;;22.40;95.30;;;;;;6044532;23;2120241;-90
2021/06/25 12:40:43;;;;;;;10.25;8.35;;;22.60;94.80;;;;;;6112065;23;20092;-91
2021/06/25 12:43:17;;;;;;;12.07;8.27;;;22.60;94.00;;;;;;6110685;23;20336;-90
2021/06/25 12:45:50;;;;;;;9.70;7.82;;;22.70;93.70;;;;;;6110842;23;20002;-91
2021/06/25 12:48:23;;;;;;;9.95;8.02;;;22.70;93.40;;;;;;6112768;23;20006;-90
2021/06/25 12:50:59;;;;;;;;;;;22.70;93.30;;;;;;6137482;23;20081;-90
2021/06/25 12:53:32;;;;;;;8.90;7.00;;;22.70;92.40;;;;;;6135582;23;19979;-90
2021/06/25 12:56:04;;;;;;;8.45;7.45;;;22.70;92.70;;;;;;6133009;23;20065;-90
2021/06/25 12:58:42;;;;;;;11.80;8.55;;;22.70;92.50;;;;;;6136368;23;20018;-91
2021/06/25 13:01:09;;;;;;;9.52;7.63;;;22.70;92.60;;;;;;6135453;23;20016;-90
2021/06/25 13:03:37;;;;;;;10.95;8.15;;;22.70;92.60;;;;;;6134796;23;20002;-90
2021/06/25 13:06:26;;;;;;;8.55;7.57;;;22.60;92.60;;;;;;6134814;23;20377;-91
2021/06/25 13:08:52;;;;;;;12.05;8.40;;;22.60;92.60;;;;;;6136999;23;20012;-91
2021/06/25 13:11:20;;;;;;;8.45;6.60;;;22.60;92.40;;;;;;6135680;23;20077;-90
2021/06/25 13:13:47;;;;;;;11.02;8.88;;;22.70;92.60;;;;;;6135738;23;20002;-90
2021/06/25 13:16:15;;;;;;;9.50;6.85;;;22.70;92.20;;;;;;6135242;23;20029;-90
2021/06/25 13:18:43;;;;;;;11.25;8.25;;;22.60;92.60;;;;;;6135648;23;20014;-89
2021/06/25 13:21:30;;;;;;;9.48;7.05;;;22.60;92.50;;;;;;6135091;23;20006;-91
2021/06/25 13:24:23;;;;;;;8.65;6.22;;;22.60;92.90;;;;;;6134339;23;20041;-90
2021/06/25 13:26:51;;;;;;;8.52;7.57;;;22.70;93.30;;;;;;6134908;23;20002;-91
2021/06/25 13:29:20;;;;;;;9.90;7.50;;;22.90;93.50;;;;;;6131912;23;19998;-92
2021/06/25 13:32:03;;;;;;;8.52;6.60;;;23.00;93.50;;;;;;6127994;23;20006;-91
2021/06/25 13:34:29;;;;;;;8.50;6.75;;;23.20;93.50;;;;;;6127618;23;20006;-90
2021/06/25 13:37:02;;;;;;;9.40;6.93;;;23.20;93.10;;;;;;6127912;23;20010;-92
2021/06/25 13:39:28;;;;;;;;;;;23.30;92.70;;;;;;6127897;23;20045;-89
2021/06/25 13:41:58;;;;;;;8.40;6.93;;;23.20;92.50;;;;;;6127901;23;19928;-90
2021/06/25 13:44:37;;;;;;;9.05;6.75;;;23.10;92.60;;;;;;6128428;23;20397;-88
2021/06/25 13:47:18;;;;;;;10.15;7.15;;;23.10;92.60;;;;;;6128364;23;20026;-88
2021/06/25 13:49:54;;;;;;;10.85;8.27;;;22.90;91.80;;;;;;6131214;23;20028;-89
2021/06/25 13:52:26;;;;;;;9.40;8.15;;;22.80;93.00;;;;;;6131823;23;20005;-88
2021/06/25 13:55:10;;;;;;;11.07;7.45;;;22.70;94.10;;;;;;6157850;23;20085;-89
2021/06/25 13:57:51;;;;;;;8.10;7.22;;;22.70;94.60;;;;;;6158456;23;20317;-89
2021/06/25 14:00:31;;;;;;;10.32;8.20;;;22.80;95.20;;;;;;6158080;23;20049;-91
2021/06/25 14:03:02;;;;;;;9.00;6.72;;;22.70;95.40;;;;;;6132240;23;20021;-90
2021/06/25 14:05:28;;;;;;;9.55;6.93;;;22.80;95.60;;;;;;6132868;23;20080;-90
2021/06/25 14:07:58;;;;;;;12.93;9.82;;;22.80;95.70;;;;;;6132521;23;20428;-90
2021/06/25 14:10:31;;;;;;;12.15;9.98;;;22.70;95.80;;;;;;6132533;23;20048;-92
2021/06/25 14:12:58;;;;;;;11.93;9.43;;;22.60;95.50;;;;;;6132988;23;20010;-92
2021/06/25 14:15:48;;;;;;;10.18;8.05;;;22.30;95.70;;;;;;6133093;23;20045;-90
2021/06/25 14:18:20;;;;;;;11.18;7.80;;;22.10;95.80;;;;;;6136015;23;20032;-90
2021/06/25 14:21:29;;;;;;;11.73;8.45;;;22.00;95.80;;;;;;6137086;23;20021;-91
2021/06/25 14:24:08;;;;;;;7.82;6.15;;;21.80;95.50;;;;;;6186187;23;20005;-92
2021/06/25 14:26:35;;;;;;;8.70;7.22;;;21.70;95.70;;;;;;6132848;23;20428;-92
2021/06/25 14:29:07;;;;;;;6.28;5.40;;;21.60;95.50;;;;;;6132185;23;20013;-92
2021/06/25 14:31:34;;;;;;;6.95;5.55;;;21.60;95.60;;;;;;6129445;23;20006;-91
2021/06/25 14:34:04;;;;;;;7.82;6.10;;;21.60;95.50;;;;;;6131204;23;20028;-89
2021/06/25 14:36:29;;;;;;;11.13;7.43;;;21.50;95.50;;;;;;6130109;23;19998;-89
2021/06/25 14:38:55;;;;;;;8.55;6.43;;;21.50;95.10;;;;;;6131645;23;20021;-87
2021/06/25 14:41:21;;;;;;;8.57;6.90;;;21.40;95.10;;;;;;6128995;23;20076;-89
2021/06/25 14:43:48;;;;;;;7.75;6.90;;;21.40;94.90;;;;;;6133295;23;20017;-89
2021/06/25 14:46:15;;;;;;;7.85;6.57;;;21.40;94.70;;;;;;6132168;23;20021;-89
2021/06/25 14:48:41;;;;;;;7.20;5.30;;;21.50;94.70;;;;;;6126187;23;20014;-91
2021/06/25 14:51:09;;;;;;;6.18;5.32;;;21.50;94.60;;;;;;6126506;23;20017;-91
2021/06/25 14:53:36;;;;;;;8.88;6.97;;;21.70;94.50;;;;;;6126089;23;20424;-89
2021/06/25 14:56:02;;;;;;;9.88;6.68;;;21.80;94.30;;;;;;6102211;23;20073;-90
2021/06/25 14:58:31;;;;;;;7.45;6.43;;;21.90;94.30;;;;;;6127559;23;20022;-91
2021/06/25 15:01:00;;;;;;;8.25;6.28;;;22.00;94.20;;;;;;6127219;23;20009;-91
2021/06/25 15:03:26;;;;;;;8.00;6.40;;;22.20;94.20;;;;;;6126819;23;20006;-91
2021/06/25 15:05:57;;;;;;;8.63;6.78;;;22.20;93.80;;;;;;6127320;23;20467;-90
2021/06/25 15:08:23;;;;;;;10.90;7.20;;;22.20;93.80;;;;;;6125016;23;20125;-91
2021/06/25 15:10:49;;;;;;;11.88;9.32;;;22.10;93.90;;;;;;6125870;23;20010;-90
2021/06/25 15:13:15;;;;;;;10.93;7.70;;;22.00;94.00;;;;;;6127300;23;20037;-91
2021/06/25 15:15:42;;;;;;;8.70;7.70;;;21.90;94.40;;;;;;6123690;23;20002;-90
2021/06/25 15:18:08;;;;;;;8.55;7.22;;;21.80;94.70;;;;;;6123536;23;20036;-91
2021/06/25 15:20:34;;;;;;;9.32;6.90;;;21.80;94.80;;;;;;6124764;23;20040;-90
2021/06/25 15:22:59;;;;;;;9.65;6.40;;;21.70;95.00;;;;;;6125763;23;19998;-90
2021/06/25 15:25:25;;;;;;;11.73;7.72;;;21.70;95.10;;;;;;6125402;23;20009;-91
2021/06/25 15:27:52;;;;;;;8.23;6.38;;;21.70;95.10;;;;;;6125800;23;20041;-90
2021/06/25 15:30:19;;;;;;;8.15;6.63;;;21.60;95.20;;;;;;6124913;23;20002;-90
2021/06/25 15:32:45;;;;;;;9.40;7.00;;;21.60;95.20;;;;;;6127479;23;20012;-91
2021/06/25 15:35:12;;;;;;;8.23;7.20;;;21.70;95.20;;;;;;6124418;23;20385;-91
2021/06/25 15:37:38;;;;;;;7.50;5.85;;;21.70;95.10;;;;;;6127062;23;20064;-90
2021/06/25 15:40:07;;;;;;;8.25;6.22;;;21.80;95.10;;;;;;6131108;23;20025;-90
2021/06/25 15:42:35;;;;;;;7.35;5.90;;;22.00;95.00;;;;;;6130547;23;20085;-89
2021/06/25 15:45:01;;;;;;;8.40;6.75;;;22.10;94.90;;;;;;6133754;23;20016;-89
2021/06/25 15:47:27;;;;;;;8.45;5.45;;;22.20;94.70;;;;;;6138949;23;20002;-91
2021/06/25 15:49:53;;;;;;;7.38;5.43;;;22.20;95.00;;;;;;6137088;23;20440;-92
2021/06/25 15:52:19;;;;;;;8.23;5.28;;;22.20;94.80;;;;;;6140174;23;20010;-91
2021/06/25 15:54:46;;;;;;;7.88;5.85;;;22.20;95.00;;;;;;6135197;23;20096;-88
2021/06/25 15:57:12;;;;;;;8.63;6.53;;;22.20;95.00;;;;;;6136717;23;20010;-90
2021/06/25 15:59:38;;;;;;;10.05;8.63;;;22.20;95.10;;;;;;6141182;23;20080;-91
2021/06/25 16:02:03;;;;;;;10.40;7.55;;;22.00;94.90;;;;;;6139059;23;20034;-91
2021/06/25 16:04:29;;;;;;;10.38;8.18;;;21.90;95.20;;;;;;6141354;23;19998;-91
2021/06/25 16:06:55;;;;;;;7.30;6.50;;;21.70;95.40;;;;;;6138527;23;20006;-91
2021/06/25 16:09:29;;;;;;;8.80;7.32;;;21.70;95.60;;;;;;6138583;23;20009;-90
2021/06/25 16:11:54;;;;;;;9.43;7.97;;;21.70;95.70;;;;;;6139644;23;20021;-89
2021/06/25 16:14:20;;;;;;;9.95;7.57;;;21.60;95.60;;;;;;6141169;23;20038;-90
2021/06/25 16:16:46;;;;;;;10.05;7.80;;;21.50;95.70;;;;;;6139075;23;19994;-90
2021/06/25 16:19:13;;;;;;;10.15;8.25;;;21.40;95.80;;;;;;6141583;23;20109;-91
2021/06/25 16:21:40;;;;;;;10.57;8.27;;;21.30;95.90;;;;;;6139537;23;20442;-90
2021/06/25 16:24:11;;;;;;;10.70;8.45;;;21.20;96.10;;;;;;6138634;23;20296;-91
2021/06/25 16:26:40;;;;;;;9.15;6.95;;;21.10;96.30;;;;;;6141920;23;20010;-91
2021/06/25 16:29:06;;;;;;;8.27;6.15;;;21.10;96.50;;;;;;6143110;23;19990;-94
2021/06/25 16:31:32;;;;;;;8.38;7.03;;;21.00;96.60;;;;;;6143077;23;20010;-92
2021/06/25 16:33:57;;;;;;;10.98;8.32;;;21.00;96.70;;;;;;6139931;23;20021;-92
2021/06/25 16:36:24;;;;;;;9.00;7.30;;;21.00;96.90;;;;;;6139303;23;20002;-91
2021/06/25 16:38:49;;;;;;;8.68;7.20;;;20.90;97.10;;;;;;6137048;23;20074;-91
2021/06/25 16:41:15;;;;;;;9.20;6.88;;;20.90;97.20;;;;;;6139513;23;20009;-90
2021/06/25 16:43:41;;;;;;;9.65;7.20;;;20.90;97.20;;;;;;6139601;23;19994;-89
2021/06/25 16:46:07;;;;;;;10.65;7.65;;;20.90;97.30;;;;;;6130465;23;20034;-89
2021/06/25 16:48:36;;;;;;;10.10;7.97;;;20.90;97.40;;;;;;6126991;23;20014;-89
2021/06/25 16:51:05;;;;;;;8.70;7.20;;;20.90;97.40;;;;;;6127652;23;20005;-92
2021/06/25 16:53:30;;;;;;;7.63;6.38;;;20.80;97.50;;;;;;6127732;23;20014;-91
2021/06/25 16:55:57;;;;;;;9.13;7.65;;;20.70;97.60;;;;;;6126974;23;20013;-92
2021/06/25 16:58:23;;;;;;;9.75;8.27;;;20.70;97.70;;;;;;6128207;23;20044;-94
2021/06/25 17:00:49;;;;;;;9.93;8.70;;;20.60;97.80;;;;;;6127830;23;20010;-91
2021/06/25 17:03:15;;;;;;;12.32;9.50;;;20.50;97.90;;;;;;6123358;23;20104;-89
2021/06/25 17:05:41;;;;;;;10.35;8.30;;;20.40;98.10;;;;;;6125155;23;20002;-89
2021/06/25 17:08:08;;;;;;;10.32;8.35;;;20.30;98.20;;;;;;6126392;23;20338;-89
2021/06/25 17:10:35;;;;;;;11.63;9.10;;;20.40;98.40;;;;;;6124922;23;20010;-89
2021/06/25 17:13:01;;;;;;;9.98;8.38;;;20.30;98.40;;;;;;6124609;23;20020;-89
2021/06/25 17:15:27;;;;;;;11.70;7.93;;;20.30;98.60;;;;;;6124620;23;20472;-89
2021/06/25 17:17:53;;;;;;;9.38;8.05;;;20.30;98.80;;;;;;6122692;23;20025;-89
2021/06/25 17:20:20;;;;;;;10.25;7.82;;;20.20;98.90;;;;;;6126485;23;20002;-92
2021/06/25 17:22:46;;;;;;;11.02;9.27;;;20.20;99.00;;;;;;6131370;23;20014;-93
2021/06/25 17:25:12;;;;;;;10.15;7.70;;;20.20;99.20;;;;;;6124862;23;20475;-90
2021/06/25 17:27:38;;;;;;;11.13;8.45;;;20.20;99.30;;;;;;6124334;23;20016;-90
2021/06/25 17:30:05;;;;;;;13.50;8.85;;;20.20;99.40;;;;;;6123661;23;20085;-88
2021/06/25 17:32:32;;;;;;;12.45;10.52;;;20.10;99.60;;;;;;6123966;23;20103;-87
2021/06/25 17:34:57;;;;;;;14.13;11.73;;;20.00;99.90;;;;;;6123160;23;20037;-88
2021/06/25 17:37:23;;;;;;;15.70;12.27;;;19.50;99.90;;;;;;6120877;23;20417;-86
2021/06/25 17:39:49;;;;;;;14.35;11.43;;;19.00;99.90;;;;;;6120197;23;20026;-85
2021/06/25 17:42:14;;;;;;;13.05;10.48;;;18.40;99.90;;;;;;6119828;23;20017;-85
2021/06/25 17:44:40;;;;;;;12.05;10.75;;;18.20;99.90;;;;;;6120200;23;20013;-85
2021/06/25 17:47:06;;;;;;;12.93;10.40;;;18.00;99.90;;;;;;6121441;23;20002;-85
2021/06/25 17:49:33;;;;;;;12.35;9.25;;;17.90;99.90;;;;;;6119386;23;20471;-86
2021/06/25 17:51:59;;;;;;;12.77;11.00;;;17.90;99.90;;;;;;6119501;23;20013;-86
2021/06/25 17:54:24;;;;;;;13.25;11.25;;;17.80;99.90;;;;;;6121205;23;20006;-85
2021/06/25 17:56:50;;;;;;;12.95;10.43;;;17.70;99.90;;;;;;6119650;23;20439;-87
2021/06/25 17:59:16;;;;;;;14.20;9.38;;;17.50;99.90;;;;;;6121419;23;20148;-87
2021/06/25 18:01:41;;;;;;;10.98;9.60;;;17.50;99.90;;;;;;6121158;23;20428;-86
2021/06/25 18:04:07;;;;;;;13.57;10.70;;;17.60;99.90;;;;;;6123279;23;20009;-88
2021/06/25 18:06:33;;;;;;;13.20;9.70;;;17.50;99.90;;;;;;6099848;23;20093;-84
2021/06/25 18:08:59;;;;;;;13.52;10.75;;;17.50;99.90;;;;;;6122314;23;20316;-88
2021/06/25 18:11:26;;;;;;;11.98;9.60;;;17.50;99.90;;;;;;6123964;23;20029;-86
2021/06/25 18:13:52;;;;;;;13.18;9.60;;;17.50;99.90;;;;;;6124581;23;20013;-88
2021/06/25 18:16:18;;;;;;;12.00;9.23;;;17.50;99.90;;;;;;6125692;23;20002;-87
2021/06/25 18:18:44;;;;;;;9.85;8.32;;;17.60;99.90;;;;;;6124603;23;20018;-87
2021/06/25 18:21:10;;;;;;;12.45;9.68;;;17.60;99.90;;;;;;6125624;23;20442;-88
2021/06/25 18:23:36;;;;;;;11.48;9.35;;;17.70;99.90;;;;;;6129844;23;20069;-86
2021/06/25 18:26:01;;;;;;;12.57;9.45;;;17.70;99.90;;;;;;6135774;23;20029;-87
2021/06/25 18:28:27;;;;;;;11.18;9.23;;;17.70;99.90;;;;;;6134466;23;20005;-85
2021/06/25 18:30:53;;;;;;;11.07;9.35;;;17.70;99.90;;;;;;6132601;23;20006;-86
2021/06/25 18:33:19;;;;;;;11.35;9.00;;;17.70;99.90;;;;;;6134502;23;20013;-86
2021/06/25 18:35:45;;;;;;;10.68;9.15;;;17.70;99.90;;;;;;6131014;23;20044;-86
2021/06/25 18:38:11;;;;;;;12.50;9.60;;;17.80;99.90;;;;;;6134585;23;20022;-89
2021/06/25 18:40:37;;;;;;;10.63;8.68;;;17.80;99.90;;;;;;6144837;23;19990;-89
2021/06/25 18:43:03;;;;;;;11.48;9.40;;;17.80;99.90;;;;;;6148100;23;20029;-90
2021/06/25 18:45:29;;;;;;;10.05;8.85;;;17.90;99.90;;;;;;6147961;23;20026;-86
2021/06/25 18:47:55;;;;;;;10.40;8.50;;;17.80;99.90;;;;;;6148324;23;19994;-88
2021/06/25 18:50:21;;;;;;;10.77;9.20;;;17.90;99.90;;;;;;6147701;23;20005;-87
2021/06/25 18:52:47;;;;;;;10.40;8.55;;;17.90;99.90;;;;;;6146956;23;19998;-86
2021/06/25 18:55:16;;;;;;;11.43;8.68;;;18.00;99.90;;;;;;6143211;23;20013;-87
2021/06/25 18:57:42;;;;;;;12.48;8.65;;;18.00;99.90;;;;;;6126161;23;20020;-86
2021/06/25 19:00:12;;;;;;;10.65;8.25;;;18.00;99.90;;;;;;6124009;23;20088;-86
2021/06/25 19:02:38;;;;;;;9.93;7.93;;;18.10;99.90;;;;;;6124979;23;20089;-86
2021/06/25 19:05:05;;;;;;;11.45;9.32;;;18.10;99.90;;;;;;6125519;23;20013;-88
2021/06/25 19:07:31;;;;;;;11.70;9.18;;;18.10;99.90;;;;;;6124428;23;20503;-88
2021/06/25 19:09:57;;;;;;;12.30;9.80;;;18.10;99.90;;;;;;6123860;23;20005;-88
2021/06/25 19:12:22;;;;;;;10.80;8.90;;;18.10;99.90;;;;;;6123400;23;20336;-88
2021/06/25 19:14:48;;;;;;;11.63;8.85;;;18.00;99.90;;;;;;6124044;23;20026;-88
2021/06/25 19:17:14;;;;;;;10.15;8.65;;;18.10;99.90;;;;;;6124592;23;20002;-89
2021/06/25 19:19:39;;;;;;;11.13;8.88;;;18.10;99.90;;;;;;6121969;23;20022;-89
2021/06/25 19:22:05;;;;;;;11.80;9.35;;;18.10;99.90;;;;;;6122853;23;20114;-89
2021/06/25 19:24:31;;;;;;;12.63;10.65;;;18.10;99.90;;;;;;6122804;23;20017;-89
2021/06/25 19:26:57;;;;;;;11.65;9.73;;;18.10;99.90;;;;;;6120830;23;20056;-89
2021/06/25 19:29:23;;;;;;;13.32;10.05;;;18.10;99.90;;;;;;6120928;23;20006;-89
2021/06/25 19:31:48;;;;;;;13.75;11.05;;;18.10;99.90;;;;;;6122121;23;20028;-91
2021/06/25 19:34:14;;;;;;;12.82;10.32;;;18.10;99.90;;;;;;6122461;23;20006;-89
2021/06/25 19:36:40;;;;;;;13.70;10.30;;;18.10;99.90;;;;;;6098376;23;20006;-88
2021/06/25 19:39:18;;;;;;;;;;;;;;;;;;;;;
2021/06/25 19:41:44;;;;;;;12.40;10.07;;;18.00;99.90;;;;;;6123185;23;20627;-88
2021/06/25 19:44:10;;;;;;;11.95;9.95;;;18.00;99.90;;;;;;6126327;23;20040;-86
2021/06/25 19:46:36;;;;;;;12.68;9.73;;;18.00;99.90;;;;;;6126227;23;20006;-90
2021/06/25 19:49:02;;;;;;;13.10;9.65;;;18.00;99.90;;;;;;6126595;23;20005;-89
2021/06/25 19:51:30;;;;;;;12.82;9.98;;;18.00;99.90;;;;;;6126178;23;20021;-91
2021/06/25 19:53:56;;;;;;;12.38;9.73;;;18.00;99.90;;;;;;6126255;23;20005;-89